createdAt,value
2023-04-14T00:00:13.506Z,92826.72
2023-04-14T00:01:17.030Z,92793.69
2023-04-14T00:02:13.713Z,92816.97
2023-04-14T00:03:10.911Z,92824.53
2023-04-14T00:04:07.937Z,92822.63
2023-04-14T00:05:05.418Z,92818.19
2023-04-14T00:06:02.593Z,92812.13
2023-04-14T00:07:00.158Z,92814.16
2023-04-14T00:07:57.671Z,92812.22
2023-04-14T00:08:54.344Z,92794.50
2023-04-14T00:09:51.126Z,92810.06
2023-04-14T00:10:47.864Z,92800.00
2023-04-14T00:11:44.464Z,92804.31
2023-04-14T00:12:41.176Z,92780.75
2023-04-14T00:13:37.935Z,92807.81
2023-04-14T00:14:34.554Z,92747.66
2023-04-14T00:15:31.167Z,92788.72
2023-04-14T00:16:27.891Z,92788.69
2023-04-14T00:17:24.625Z,92796.75
2023-04-14T00:18:21.274Z,92594.09
2023-04-14T00:19:17.884Z,92750.31
2023-04-14T00:20:14.508Z,92799.84
2023-04-14T00:21:11.232Z,92798.59
2023-04-14T00:22:08.475Z,92765.69
2023-04-14T00:23:05.097Z,92699.50
2023-04-14T00:24:01.705Z,92794.22
2023-04-14T00:24:58.313Z,92785.44
2023-04-14T00:25:55.103Z,92797.69
2023-04-14T00:26:51.931Z,92798.06
2023-04-14T00:27:48.536Z,92793.31
2023-04-14T00:28:45.196Z,92790.59
2023-04-14T00:29:41.820Z,92793.22
2023-04-14T00:30:38.557Z,92787.13
2023-04-14T00:31:35.482Z,92785.09
2023-04-14T00:32:32.271Z,92781.22
2023-04-14T00:33:28.930Z,92790.84
2023-04-14T00:34:25.712Z,92788.94
2023-04-14T00:35:22.510Z,92794.22
2023-04-14T00:36:19.222Z,92749.22
2023-04-14T00:37:16.746Z,92772.13
2023-04-14T00:38:13.341Z,92783.97
2023-04-14T00:39:09.989Z,92788.59
2023-04-14T00:40:09.276Z,92789.34
2023-04-14T00:41:05.974Z,92786.63
2023-04-14T00:42:03.190Z,92742.16
2023-04-14T00:42:59.763Z,92790.00
2023-04-14T00:43:56.305Z,92781.50
2023-04-14T00:44:52.991Z,92758.63
2023-04-14T00:45:50.921Z,92770.69
2023-04-14T00:46:48.017Z,92800.75
2023-04-14T00:47:50.754Z,92798.13
2023-04-14T00:48:48.036Z,92794.81
2023-04-14T00:49:44.865Z,92795.91
2023-04-14T00:50:42.565Z,92770.97
2023-04-14T00:51:39.142Z,92798.84
2023-04-14T00:52:37.688Z,92761.53
2023-04-14T00:53:34.612Z,92796.47
2023-04-14T00:54:32.670Z,92758.38
2023-04-14T00:55:30.052Z,92742.00
2023-04-14T00:56:26.822Z,92778.69
2023-04-14T00:57:23.945Z,92786.41
2023-04-14T00:58:20.843Z,92784.47
2023-04-14T00:59:18.100Z,92788.66
2023-04-14T01:00:15.815Z,92791.38
2023-04-14T01:01:13.087Z,92787.09
2023-04-14T01:02:10.544Z,92786.69
2023-04-14T01:03:07.399Z,92761.78
2023-04-14T01:04:04.733Z,92791.34
2023-04-14T01:05:01.998Z,92783.06
2023-04-14T01:05:58.774Z,92793.56
2023-04-14T01:06:55.362Z,92759.22
2023-04-14T01:07:52.866Z,92790.31
2023-04-14T01:08:50.688Z,92801.50
2023-04-14T01:09:47.730Z,92788.00
2023-04-14T01:10:59.854Z,92783.53
2023-04-14T01:12:19.282Z,92775.47
2023-04-14T01:13:47.565Z,92775.59
2023-04-14T01:15:02.282Z,92778.38
2023-04-14T01:16:03.996Z,92765.78
2023-04-14T01:17:10.380Z,92769.06
2023-04-14T01:18:12.798Z,92775.34
2023-04-14T01:19:47.449Z,92777.38
2023-04-14T01:20:48.897Z,92753.59
2023-04-14T01:21:52.441Z,92762.75
2023-04-14T01:23:15.610Z,92732.03
2023-04-14T01:24:30.888Z,92768.56
2023-04-14T01:25:55.440Z,92732.81
2023-04-14T01:27:04.825Z,92769.28
2023-04-14T01:28:43.117Z,92676.09
2023-04-14T01:30:24.525Z,92784.31
2023-04-14T01:31:26.623Z,92737.81
2023-04-14T01:32:25.665Z,92787.47
2023-04-14T01:33:26.278Z,92785.03
2023-04-14T01:34:34.249Z,92779.47
2023-04-14T01:35:38.725Z,92748.31
2023-04-14T01:36:42.417Z,92779.47
2023-04-14T01:37:47.683Z,92771.69
2023-04-14T01:38:47.589Z,92783.59
2023-04-14T01:39:52.315Z,92785.16
2023-04-14T01:40:51.667Z,92789.25
2023-04-14T01:41:52.722Z,92785.41
2023-04-14T01:42:59.539Z,92778.09
2023-04-14T01:43:58.746Z,92783.13
2023-04-14T01:44:58.949Z,92786.16
2023-04-14T01:46:00.756Z,92782.94
2023-04-14T01:47:02.426Z,92778.06
2023-04-14T01:48:00.525Z,92684.19
2023-04-14T01:48:57.382Z,92778.84
2023-04-14T01:49:56.754Z,92727.84
2023-04-14T01:50:55.545Z,92776.09
2023-04-14T01:51:55.423Z,92772.97
2023-04-14T01:52:57.106Z,92716.25
2023-04-14T01:53:55.511Z,92771.47
2023-04-14T01:54:54.698Z,92773.78
2023-04-14T01:55:53.165Z,92772.31
2023-04-14T01:56:52.465Z,92771.19
2023-04-14T01:57:52.306Z,92758.22
2023-04-14T01:58:50.118Z,92772.59
2023-04-14T01:59:48.664Z,92761.47
2023-04-14T02:00:46.597Z,92762.56
2023-04-14T02:01:46.114Z,92729.91
2023-04-14T02:02:48.475Z,92757.78
2023-04-14T02:03:46.618Z,92768.88
2023-04-14T02:04:44.528Z,92763.53
2023-04-14T02:05:42.370Z,92767.06
2023-04-14T02:06:40.767Z,92732.94
2023-04-14T02:07:39.061Z,92758.97
2023-04-14T02:08:40.777Z,92759.69
2023-04-14T02:09:39.330Z,92764.16
2023-04-14T02:10:38.741Z,92765.63
2023-04-14T02:11:36.637Z,92745.97
2023-04-14T02:12:36.299Z,92759.78
2023-04-14T02:13:34.505Z,92764.25
2023-04-14T02:14:32.648Z,92762.00
2023-04-14T02:15:32.465Z,92762.81
2023-04-14T02:16:29.962Z,92764.38
2023-04-14T02:17:27.698Z,92763.78
2023-04-14T02:18:25.984Z,92749.06
2023-04-14T02:19:23.174Z,92770.97
2023-04-14T02:20:21.361Z,92734.19
2023-04-14T02:21:20.567Z,92767.88
2023-04-14T02:22:17.150Z,92774.47
2023-04-14T02:23:14.864Z,92773.75
2023-04-14T02:24:11.678Z,92776.63
2023-04-14T02:25:09.227Z,92773.16
2023-04-14T02:26:12.701Z,92778.88
2023-04-14T02:27:14.672Z,92772.72
2023-04-14T02:28:19.679Z,92766.44
2023-04-14T02:29:22.226Z,92763.31
2023-04-14T02:30:30.268Z,92785.50
2023-04-14T02:31:30.292Z,92764.00
2023-04-14T02:32:29.975Z,92718.69
2023-04-14T02:33:31.569Z,92778.81
2023-04-14T02:34:33.864Z,92776.44
2023-04-14T02:35:39.824Z,92768.53
2023-04-14T02:37:00.853Z,92763.53
2023-04-14T02:38:07.364Z,92735.22
2023-04-14T02:39:10.458Z,92733.47
2023-04-14T02:40:21.830Z,92767.69
2023-04-14T02:41:26.708Z,92757.03
2023-04-14T02:42:27.000Z,92690.78
2023-04-14T02:43:30.898Z,92759.72
2023-04-14T02:44:33.253Z,92759.44
2023-04-14T02:45:33.035Z,92760.22
2023-04-14T02:46:35.743Z,92761.72
2023-04-14T02:47:38.154Z,92765.44
2023-04-14T02:48:36.746Z,92759.69
2023-04-14T02:49:37.131Z,92751.31
2023-04-14T02:50:34.798Z,92753.47
2023-04-14T02:51:33.091Z,92749.31
2023-04-14T02:52:31.656Z,92761.28
2023-04-14T02:53:28.717Z,92753.97
2023-04-14T02:54:26.114Z,92717.06
2023-04-14T02:55:23.488Z,92754.53
2023-04-14T02:56:21.275Z,92737.09
2023-04-14T02:57:18.430Z,92758.56
2023-04-14T02:58:16.329Z,92758.03
2023-04-14T02:59:13.222Z,92707.81
2023-04-14T03:00:11.276Z,92759.63
2023-04-14T03:01:08.268Z,92635.88
2023-04-14T03:02:06.392Z,92756.19
2023-04-14T03:03:05.427Z,92724.41
2023-04-14T03:04:02.449Z,92720.91
2023-04-14T03:05:00.785Z,92761.88
2023-04-14T03:05:57.803Z,92761.63
2023-04-14T03:06:55.904Z,92761.59
2023-04-14T03:07:55.094Z,92729.03
2023-04-14T03:08:54.041Z,92756.16
2023-04-14T03:09:52.022Z,92758.25
2023-04-14T03:10:48.991Z,92756.38
2023-04-14T03:11:46.579Z,92754.44
2023-04-14T03:12:44.260Z,92744.91
2023-04-14T03:13:43.617Z,92755.25
2023-04-14T03:14:41.601Z,92762.06
2023-04-14T03:15:39.352Z,92749.47
2023-04-14T03:16:39.422Z,92751.44
2023-04-14T03:17:37.276Z,92744.91
2023-04-14T03:18:35.555Z,92747.88
2023-04-14T03:19:33.120Z,92740.84
2023-04-14T03:20:30.440Z,92748.50
2023-04-14T03:21:30.198Z,92677.84
2023-04-14T03:22:28.338Z,92743.72
2023-04-14T03:23:25.940Z,92741.09
2023-04-14T03:24:27.420Z,92716.16
2023-04-14T03:25:37.990Z,92737.25
2023-04-14T03:26:37.462Z,92719.53
2023-04-14T03:27:35.816Z,92693.50
2023-04-14T03:28:37.553Z,92697.44
2023-04-14T03:29:38.713Z,92728.00
2023-04-14T03:30:40.584Z,92745.50
2023-04-14T03:31:38.927Z,92683.59
2023-04-14T03:32:42.037Z,92741.00
2023-04-14T03:33:40.893Z,92743.94
2023-04-14T03:34:46.627Z,92748.72
2023-04-14T03:35:44.746Z,92692.69
2023-04-14T03:36:43.696Z,92754.19
2023-04-14T03:37:41.624Z,92740.34
2023-04-14T03:38:39.529Z,92677.94
2023-04-14T03:39:39.225Z,92752.00
2023-04-14T03:40:40.127Z,92737.16
2023-04-14T03:41:37.934Z,92736.31
2023-04-14T03:42:36.161Z,92708.50
2023-04-14T03:43:33.801Z,92738.75
2023-04-14T03:44:34.470Z,92700.34
2023-04-14T03:45:32.351Z,92728.75
2023-04-14T03:46:30.326Z,92669.13
2023-04-14T03:47:31.731Z,92727.34
2023-04-14T03:48:34.339Z,92681.72
2023-04-14T03:49:33.370Z,92717.22
2023-04-14T03:50:36.833Z,92716.53
2023-04-14T03:51:35.161Z,92644.66
2023-04-14T03:52:35.610Z,92682.91
2023-04-14T03:53:34.922Z,92700.88
2023-04-14T03:54:33.848Z,92705.09
2023-04-14T03:55:32.963Z,92694.38
2023-04-14T03:56:32.603Z,92704.28
2023-04-14T03:57:32.622Z,92695.34
2023-04-14T03:58:30.947Z,92704.22
2023-04-14T03:59:28.388Z,92659.47
2023-04-14T04:00:27.187Z,92648.13
2023-04-14T04:01:26.040Z,92635.53
2023-04-14T04:02:24.329Z,92686.31
2023-04-14T04:03:23.266Z,92692.56
2023-04-14T04:04:21.449Z,92687.41
2023-04-14T04:05:18.854Z,92689.69
2023-04-14T04:06:15.968Z,92686.38
2023-04-14T04:07:13.622Z,92674.59
2023-04-14T04:08:11.479Z,92622.16
2023-04-14T04:09:12.622Z,92644.66
2023-04-14T04:10:12.574Z,92611.25
2023-04-14T04:11:10.493Z,92634.69
2023-04-14T04:12:08.272Z,92673.78
2023-04-14T04:13:11.202Z,92665.69
2023-04-14T04:14:09.597Z,92669.13
2023-04-14T04:15:06.937Z,92670.59
2023-04-14T04:16:07.529Z,92657.69
2023-04-14T04:17:07.294Z,92678.34
2023-04-14T04:18:07.303Z,92679.50
2023-04-14T04:19:06.398Z,92623.59
2023-04-14T04:20:08.068Z,92664.19
2023-04-14T04:21:04.931Z,92680.63
2023-04-14T04:22:03.040Z,92681.47
2023-04-14T04:23:01.834Z,92689.06
2023-04-14T04:24:01.673Z,92670.06
2023-04-14T04:24:58.792Z,92682.59
2023-04-14T04:25:58.708Z,92670.38
2023-04-14T04:26:56.262Z,92667.00
2023-04-14T04:27:53.111Z,92665.84
2023-04-14T04:28:50.874Z,92675.81
2023-04-14T04:29:48.210Z,92669.28
2023-04-14T04:30:46.485Z,92680.41
2023-04-14T04:31:43.237Z,92660.97
2023-04-14T04:32:39.914Z,92675.50
2023-04-14T04:33:37.258Z,92680.03
2023-04-14T04:34:35.334Z,92650.59
2023-04-14T04:35:32.992Z,92670.13
2023-04-14T04:36:32.098Z,92680.13
2023-04-14T04:37:30.169Z,92683.84
2023-04-14T04:38:26.832Z,92687.63
2023-04-14T04:39:23.386Z,92691.53
2023-04-14T04:40:20.223Z,92683.16
2023-04-14T04:41:30.272Z,92697.56
2023-04-14T04:42:26.897Z,92689.19
2023-04-14T04:43:23.464Z,92634.03
2023-04-14T04:44:20.065Z,92691.81
2023-04-14T04:45:36.615Z,92693.00
2023-04-14T04:46:48.549Z,92698.75
2023-04-14T04:47:45.587Z,92698.72
2023-04-14T04:48:42.250Z,92699.84
2023-04-14T04:49:38.932Z,92632.47
2023-04-14T04:50:35.537Z,92699.53
2023-04-14T04:51:32.174Z,92701.81
2023-04-14T04:52:28.735Z,92650.56
2023-04-14T04:53:25.482Z,92706.78
2023-04-14T04:54:22.156Z,92708.22
2023-04-14T04:55:18.777Z,92706.31
2023-04-14T04:56:15.483Z,92708.25
2023-04-14T04:57:12.330Z,92711.34
2023-04-14T04:58:09.379Z,92680.69
2023-04-14T04:59:06.037Z,92707.81
2023-04-14T05:00:02.773Z,92646.97
2023-04-14T05:00:59.500Z,92682.09
2023-04-14T05:01:56.531Z,92672.97
2023-04-14T05:02:53.501Z,92715.84
2023-04-14T05:03:50.636Z,92710.47
2023-04-14T05:04:48.868Z,92697.47
2023-04-14T05:05:45.717Z,92707.03
2023-04-14T05:06:42.417Z,92710.41
2023-04-14T05:07:38.993Z,92707.72
2023-04-14T05:08:35.579Z,92710.75
2023-04-14T05:09:32.264Z,92704.66
2023-04-14T05:10:28.956Z,92692.47
2023-04-14T05:11:27.101Z,92697.34
2023-04-14T05:12:23.694Z,92706.59
2023-04-14T05:13:20.491Z,92693.22
2023-04-14T05:14:17.111Z,92693.69
2023-04-14T05:15:13.669Z,92653.09
2023-04-14T05:16:11.659Z,92629.78
2023-04-14T05:17:08.254Z,92689.13
2023-04-14T05:18:04.924Z,92676.41
2023-04-14T05:19:03.328Z,92674.19
2023-04-14T05:20:00.111Z,92678.78
2023-04-14T05:21:01.427Z,92693.31
2023-04-14T05:21:58.025Z,92700.88
2023-04-14T05:22:54.661Z,92696.31
2023-04-14T05:23:51.405Z,92696.72
2023-04-14T05:24:51.696Z,92697.09
2023-04-14T05:25:48.351Z,92692.53
2023-04-14T05:27:01.700Z,92694.09
2023-04-14T05:28:01.809Z,92690.28
2023-04-14T05:28:58.446Z,92692.97
2023-04-14T05:29:55.483Z,92686.84
2023-04-14T05:30:52.267Z,92669.28
2023-04-14T05:31:48.952Z,92688.81
2023-04-14T05:32:45.669Z,92638.72
2023-04-14T05:33:42.373Z,92685.00
2023-04-14T05:34:39.005Z,92677.06
2023-04-14T05:35:35.698Z,92663.78
2023-04-14T05:36:32.384Z,92667.53
2023-04-14T05:37:30.068Z,92672.16
2023-04-14T05:38:27.193Z,92666.00
2023-04-14T05:39:23.933Z,92668.38
2023-04-14T05:40:22.305Z,92661.88
2023-04-14T05:41:18.947Z,92578.94
2023-04-14T05:42:15.592Z,92608.72
2023-04-14T05:43:12.375Z,92626.34
2023-04-14T05:44:08.918Z,92621.38
2023-04-14T05:45:06.385Z,92642.00
2023-04-14T05:46:04.753Z,92630.50
2023-04-14T05:47:01.492Z,92634.72
2023-04-14T05:47:58.564Z,92630.91
2023-04-14T05:48:56.870Z,92602.22
2023-04-14T05:49:53.665Z,92635.47
2023-04-14T05:50:50.287Z,92627.47
2023-04-14T05:51:46.903Z,92635.47
2023-04-14T05:52:43.638Z,92579.31
2023-04-14T05:53:40.242Z,92623.59
2023-04-14T05:54:36.870Z,92623.88
2023-04-14T05:55:33.625Z,92580.88
2023-04-14T05:56:30.274Z,92618.25
2023-04-14T05:57:26.990Z,92621.66
2023-04-14T05:58:24.954Z,92626.69
2023-04-14T05:59:21.665Z,92618.69
2023-04-14T06:00:19.889Z,92615.13
2023-04-14T06:01:16.486Z,92616.34
2023-04-14T06:02:13.209Z,92609.78
2023-04-14T06:03:10.357Z,92608.69
2023-04-14T06:04:07.423Z,92618.66
2023-04-14T06:05:07.548Z,92610.66
2023-04-14T06:06:04.885Z,92610.56
2023-04-14T06:07:03.099Z,92608.94
2023-04-14T06:07:59.762Z,92608.63
2023-04-14T06:08:56.446Z,92608.66
2023-04-14T06:09:53.328Z,92617.53
2023-04-14T06:10:50.052Z,92609.50
2023-04-14T06:11:46.737Z,92607.50
2023-04-14T06:12:43.337Z,92599.09
2023-04-14T06:13:39.986Z,92610.22
2023-04-14T06:14:36.554Z,92591.50
2023-04-14T06:15:33.136Z,92511.28
2023-04-14T06:16:29.929Z,92601.00
2023-04-14T06:17:26.730Z,92612.50
2023-04-14T06:18:23.515Z,92617.06
2023-04-14T06:19:20.276Z,92610.50
2023-04-14T06:20:18.584Z,92590.31
2023-04-14T06:21:15.468Z,92576.22
2023-04-14T06:22:13.984Z,92601.41
2023-04-14T06:23:10.927Z,92554.88
2023-04-14T06:24:07.657Z,92609.81
2023-04-14T06:25:04.661Z,92605.19
2023-04-14T06:26:03.891Z,92589.09
2023-04-14T06:27:03.778Z,92555.84
2023-04-14T06:28:03.626Z,92503.50
2023-04-14T06:29:01.206Z,92446.38
2023-04-14T06:30:00.140Z,92582.63
2023-04-14T06:30:56.830Z,92578.41
2023-04-14T06:31:54.937Z,92575.38
2023-04-14T06:32:54.441Z,92578.00
2023-04-14T06:33:52.951Z,92545.44
2023-04-14T06:34:51.936Z,92570.59
2023-04-14T06:35:49.997Z,92528.53
2023-04-14T06:36:46.655Z,92549.97
2023-04-14T06:37:43.270Z,92524.88
2023-04-14T06:38:39.925Z,92541.53
2023-04-14T06:39:36.540Z,92553.25
2023-04-14T06:40:33.124Z,92547.56
2023-04-14T06:41:29.760Z,92555.63
2023-04-14T06:42:26.364Z,92536.31
2023-04-14T06:43:22.907Z,92559.66
2023-04-14T06:44:19.532Z,92547.72
2023-04-14T06:45:16.358Z,92544.47
2023-04-14T06:46:13.106Z,92550.91
2023-04-14T06:47:09.787Z,92533.88
2023-04-14T06:48:07.898Z,92545.28
2023-04-14T06:49:04.720Z,92556.22
2023-04-14T06:50:03.118Z,92549.59
2023-04-14T06:50:59.849Z,92553.34
2023-04-14T06:51:56.389Z,92543.78
2023-04-14T06:52:53.090Z,92542.13
2023-04-14T06:53:49.710Z,92540.59
2023-04-14T06:54:46.915Z,92535.63
2023-04-14T06:55:43.582Z,92536.88
2023-04-14T06:56:40.311Z,92549.91
2023-04-14T06:57:36.940Z,92546.41
2023-04-14T06:58:33.932Z,92555.81
2023-04-14T06:59:30.678Z,92496.13
2023-04-14T07:00:27.509Z,92538.38
2023-04-14T07:01:24.626Z,92540.97
2023-04-14T07:02:21.439Z,92524.63
2023-04-14T07:03:18.209Z,92530.56
2023-04-14T07:04:15.565Z,92514.88
2023-04-14T07:05:12.508Z,92514.66
2023-04-14T07:06:11.952Z,92468.56
2023-04-14T07:07:08.694Z,92516.22
2023-04-14T07:08:05.427Z,92461.09
2023-04-14T07:09:02.348Z,92488.56
2023-04-14T07:09:58.974Z,92507.34
2023-04-14T07:10:59.778Z,92505.09
2023-04-14T07:11:57.657Z,92471.03
2023-04-14T07:12:54.324Z,92478.16
2023-04-14T07:13:50.950Z,92491.59
2023-04-14T07:14:52.029Z,92483.56
2023-04-14T07:15:48.790Z,92491.59
2023-04-14T07:16:45.514Z,92450.00
2023-04-14T07:17:42.159Z,92488.00
2023-04-14T07:18:38.849Z,92461.38
2023-04-14T07:19:35.788Z,92487.50
2023-04-14T07:20:32.596Z,92445.16
2023-04-14T07:21:29.257Z,92447.41
2023-04-14T07:22:25.870Z,92494.06
2023-04-14T07:23:22.796Z,92450.63
2023-04-14T07:24:19.431Z,92496.75
2023-04-14T07:25:16.090Z,92496.09
2023-04-14T07:26:12.783Z,92428.22
2023-04-14T07:27:15.440Z,92415.56
2023-04-14T07:28:12.285Z,92506.06
2023-04-14T07:29:08.944Z,92491.34
2023-04-14T07:30:06.332Z,92489.44
2023-04-14T07:31:12.754Z,92445.28
2023-04-14T07:32:09.506Z,92490.41
2023-04-14T07:33:06.573Z,92502.69
2023-04-14T07:34:03.578Z,92463.13
2023-04-14T07:35:00.644Z,92492.84
2023-04-14T07:36:57.125Z,92485.66
2023-04-14T07:37:53.691Z,92484.25
2023-04-14T07:38:51.826Z,92496.25
2023-04-14T07:39:48.566Z,92491.78
2023-04-14T07:40:45.819Z,92502.34
2023-04-14T07:41:42.436Z,92504.63
2023-04-14T07:42:39.030Z,92502.09
2023-04-14T07:43:36.030Z,92494.66
2023-04-14T07:44:33.318Z,92488.19
2023-04-14T07:45:31.183Z,92502.03
2023-04-14T07:46:27.962Z,92495.06
2023-04-14T07:47:24.770Z,92493.94
2023-04-14T07:48:21.972Z,92502.72
2023-04-14T07:49:18.762Z,92466.44
2023-04-14T07:50:18.471Z,92484.25
2023-04-14T07:51:16.355Z,92492.00
2023-04-14T07:52:12.954Z,92495.28
2023-04-14T07:53:09.521Z,92503.47
2023-04-14T07:54:06.303Z,92515.31
2023-04-14T07:55:03.980Z,92472.88
2023-04-14T07:56:00.991Z,92482.94
2023-04-14T07:56:57.992Z,92496.34
2023-04-14T07:57:54.650Z,92492.13
2023-04-14T07:58:51.285Z,92454.34
2023-04-14T07:59:47.917Z,92490.47
2023-04-14T08:00:44.650Z,92489.63
2023-04-14T08:01:41.742Z,92448.88
2023-04-14T08:02:38.627Z,92500.81
2023-04-14T08:03:37.512Z,92499.31
2023-04-14T08:04:34.478Z,92499.41
2023-04-14T08:05:31.311Z,92494.88
2023-04-14T08:06:28.489Z,92495.66
2023-04-14T08:07:28.651Z,92489.16
2023-04-14T08:08:25.492Z,92476.09
2023-04-14T08:09:22.348Z,92483.06
2023-04-14T08:10:19.004Z,92435.09
2023-04-14T08:11:15.712Z,92465.69
2023-04-14T08:12:12.385Z,92459.72
2023-04-14T08:13:09.377Z,92418.88
2023-04-14T08:14:06.057Z,92477.91
2023-04-14T08:15:02.825Z,92468.06
2023-04-14T08:15:59.551Z,92474.06
2023-04-14T08:16:56.167Z,92490.59
2023-04-14T08:17:52.752Z,92469.00
2023-04-14T08:18:49.448Z,92466.72
2023-04-14T08:19:46.912Z,92462.44
2023-04-14T08:20:43.562Z,92468.91
2023-04-14T08:21:40.186Z,92429.19
2023-04-14T08:22:36.966Z,92493.50
2023-04-14T08:23:34.059Z,92469.66
2023-04-14T08:24:31.087Z,92483.66
2023-04-14T08:25:27.685Z,92489.63
2023-04-14T08:26:24.525Z,92476.25
2023-04-14T08:27:21.353Z,92493.72
2023-04-14T08:28:18.419Z,92478.78
2023-04-14T08:29:15.504Z,92491.97
2023-04-14T08:30:12.533Z,92430.72
2023-04-14T08:31:09.114Z,92489.59
2023-04-14T08:32:05.968Z,92495.97
2023-04-14T08:33:05.797Z,92500.91
2023-04-14T08:34:03.163Z,92506.69
2023-04-14T08:35:35.985Z,92491.16
2023-04-14T08:36:16.549Z,92447.44
2023-04-14T08:37:13.214Z,92514.78
2023-04-14T08:38:10.168Z,92526.38
2023-04-14T08:39:07.039Z,92483.97
2023-04-14T08:40:04.896Z,92520.28
2023-04-14T08:41:07.326Z,92492.28
2023-04-14T08:42:05.230Z,92483.88
2023-04-14T08:43:01.934Z,92512.31
2023-04-14T08:43:58.581Z,92437.66
2023-04-14T08:44:56.046Z,92453.91
2023-04-14T08:45:53.580Z,92505.44
2023-04-14T08:46:54.483Z,92457.69
2023-04-14T08:47:55.160Z,92504.75
2023-04-14T08:48:59.082Z,92444.69
2023-04-14T08:50:01.659Z,92502.06
2023-04-14T08:51:13.944Z,92512.22
2023-04-14T08:52:14.380Z,92515.09
2023-04-14T08:53:13.511Z,92510.69
2023-04-14T08:54:11.501Z,92512.78
2023-04-14T08:55:08.387Z,92505.22
2023-04-14T08:56:08.808Z,92503.19
2023-04-14T08:57:09.028Z,92518.06
2023-04-14T08:58:08.190Z,92532.13
2023-04-14T08:59:09.849Z,92521.97
2023-04-14T09:00:07.201Z,92534.94
2023-04-14T09:01:04.692Z,92534.72
2023-04-14T09:02:05.609Z,92529.09
2023-04-14T09:03:02.703Z,92539.88
2023-04-14T09:04:01.797Z,92530.91
2023-04-14T09:04:59.392Z,92516.34
2023-04-14T09:05:56.649Z,92526.38
2023-04-14T09:06:54.528Z,92523.69
2023-04-14T09:07:51.826Z,92509.16
2023-04-14T09:08:48.610Z,92512.81
2023-04-14T09:09:45.382Z,92514.91
2023-04-14T09:10:42.839Z,92530.38
2023-04-14T09:11:40.674Z,92534.09
2023-04-14T09:12:41.590Z,92499.16
2023-04-14T09:13:40.673Z,92543.06
2023-04-14T09:14:37.605Z,92488.41
2023-04-14T09:15:34.302Z,92530.28
2023-04-14T09:16:32.065Z,92534.19
2023-04-14T09:17:31.043Z,92520.44
2023-04-14T09:18:28.853Z,92525.66
2023-04-14T09:19:28.222Z,92527.03
2023-04-14T09:20:38.220Z,92538.03
2023-04-14T09:21:53.968Z,92551.50
2023-04-14T09:22:53.286Z,92567.88
2023-04-14T09:23:50.514Z,92566.16
2023-04-14T09:24:47.689Z,92543.56
2023-04-14T09:25:45.311Z,92548.09
2023-04-14T09:26:42.772Z,92524.97
2023-04-14T09:27:40.107Z,92548.19
2023-04-14T09:28:37.365Z,92557.00
2023-04-14T09:29:34.197Z,92558.19
2023-04-14T09:30:31.792Z,92558.53
2023-04-14T09:31:28.652Z,92565.28
2023-04-14T09:32:26.117Z,92551.81
2023-04-14T09:33:23.724Z,92565.78
2023-04-14T09:34:21.611Z,92550.97
2023-04-14T09:35:18.332Z,92564.34
2023-04-14T09:36:22.509Z,92581.59
2023-04-14T09:37:19.930Z,92569.41
2023-04-14T09:38:35.092Z,92550.19
2023-04-14T09:39:32.850Z,92601.88
2023-04-14T09:40:31.119Z,92591.13
2023-04-14T09:41:28.075Z,92588.06
2023-04-14T09:42:41.057Z,92583.53
2023-04-14T09:43:37.678Z,92576.78
2023-04-14T09:44:34.292Z,92590.34
2023-04-14T09:45:44.892Z,92595.72
2023-04-14T09:47:05.240Z,92606.22
2023-04-14T09:48:08.354Z,92579.66
2023-04-14T09:49:05.288Z,92598.19
2023-04-14T09:50:04.152Z,92577.69
2023-04-14T09:51:09.997Z,92622.28
2023-04-14T09:52:09.804Z,92606.38
2023-04-14T09:53:08.521Z,92586.56
2023-04-14T09:54:06.268Z,92594.44
2023-04-14T09:55:08.288Z,92620.88
2023-04-14T09:56:10.638Z,92602.81
2023-04-14T09:57:08.038Z,92595.38
2023-04-14T09:58:04.741Z,92617.19
2023-04-14T09:59:02.720Z,92619.78
2023-04-14T09:59:59.902Z,92588.66
2023-04-14T10:00:57.274Z,92642.25
2023-04-14T10:01:58.537Z,92637.47
2023-04-14T10:02:58.412Z,92645.31
2023-04-14T10:03:55.222Z,92644.56
2023-04-14T10:05:06.470Z,92647.78
2023-04-14T10:06:07.424Z,92635.16
2023-04-14T10:07:11.254Z,92648.13
2023-04-14T10:08:07.896Z,92642.75
2023-04-14T10:09:05.890Z,92633.91
2023-04-14T10:10:07.553Z,92623.88
2023-04-14T10:11:26.513Z,92651.22
2023-04-14T10:12:23.204Z,92654.91
2023-04-14T10:13:20.136Z,92553.66
2023-04-14T10:14:18.080Z,92654.22
2023-04-14T10:15:15.559Z,92662.81
2023-04-14T10:16:12.376Z,92664.50
2023-04-14T10:17:09.896Z,92677.41
2023-04-14T10:18:07.101Z,92681.38
2023-04-14T10:19:04.207Z,92537.63
2023-04-14T10:20:01.106Z,92670.16
2023-04-14T10:20:58.998Z,92673.63
2023-04-14T10:21:56.304Z,92667.72
2023-04-14T10:22:54.822Z,92687.56
2023-04-14T10:23:52.475Z,92666.47
2023-04-14T10:24:49.856Z,92676.94
2023-04-14T10:25:49.300Z,92627.47
2023-04-14T10:26:48.169Z,92678.09
2023-04-14T10:27:45.334Z,92691.13
2023-04-14T10:28:47.645Z,92672.91
2023-04-14T10:29:44.248Z,92677.19
2023-04-14T10:30:41.206Z,92659.91
2023-04-14T10:31:40.307Z,92696.03
2023-04-14T10:32:40.568Z,92680.72
2023-04-14T10:33:40.466Z,92700.38
2023-04-14T10:34:39.571Z,92713.66
2023-04-14T10:35:41.724Z,92701.66
2023-04-14T10:36:38.884Z,92722.00
2023-04-14T10:37:36.813Z,92712.41
2023-04-14T10:38:44.211Z,92711.28
2023-04-14T10:39:41.432Z,92719.66
2023-04-14T10:40:48.651Z,92717.88
2023-04-14T10:41:48.253Z,92709.97
2023-04-14T10:42:53.361Z,92739.66
2023-04-14T10:43:50.072Z,92754.97
2023-04-14T10:45:05.909Z,92744.78
2023-04-14T10:46:03.843Z,92761.44
2023-04-14T10:47:04.943Z,92761.31
2023-04-14T10:48:03.836Z,92779.38
2023-04-14T10:49:03.162Z,92782.09
2023-04-14T10:50:11.217Z,92769.97
2023-04-14T10:51:10.680Z,92776.28
2023-04-14T10:52:27.663Z,92795.50
2023-04-14T10:53:33.886Z,92816.91
2023-04-14T10:54:53.396Z,92809.72
2023-04-14T10:55:53.666Z,92762.31
2023-04-14T10:57:12.661Z,92822.03
2023-04-14T10:58:09.417Z,92836.94
2023-04-14T10:59:05.976Z,92566.72
2023-04-14T11:00:25.319Z,92840.41
2023-04-14T11:01:32.791Z,92840.78
2023-04-14T11:02:34.488Z,92823.97
2023-04-14T11:03:32.791Z,92828.56
2023-04-14T11:04:29.719Z,92847.31
2023-04-14T11:05:27.094Z,92858.78
2023-04-14T11:06:58.926Z,92866.03
2023-04-14T11:08:02.680Z,92871.28
2023-04-14T11:08:59.936Z,92858.72
2023-04-14T11:10:25.132Z,92878.84
2023-04-14T11:11:28.537Z,92864.91
2023-04-14T11:12:27.746Z,92868.66
2023-04-14T11:13:24.467Z,92875.09
2023-04-14T11:14:30.797Z,92876.06
2023-04-14T11:15:43.312Z,92877.63
2023-04-14T11:16:44.801Z,92875.00
2023-04-14T11:17:47.517Z,92883.78
2023-04-14T11:19:00.149Z,92882.75
2023-04-14T11:19:58.058Z,92876.69
2023-04-14T11:21:01.308Z,92885.97
2023-04-14T11:21:58.078Z,92886.31
2023-04-14T11:22:57.674Z,92883.78
2023-04-14T11:23:54.285Z,92904.50
2023-04-14T11:24:50.939Z,92896.38
2023-04-14T11:25:48.583Z,92892.19
2023-04-14T11:26:45.587Z,92894.06
2023-04-14T11:27:43.235Z,92893.00
2023-04-14T11:28:42.939Z,92886.00
2023-04-14T11:29:39.927Z,92885.44
2023-04-14T11:30:36.671Z,92881.44
2023-04-14T11:31:33.361Z,92782.16
2023-04-14T11:32:31.102Z,92872.19
2023-04-14T11:33:34.192Z,92859.81
2023-04-14T11:34:31.290Z,92881.97
2023-04-14T11:35:29.353Z,92879.72
2023-04-14T11:36:26.061Z,92888.41
2023-04-14T11:37:23.037Z,92888.47